sensor_id;sensor_type;location;lat;lon;timestamp;pressure;altitude;pressure_sealevel;temperature;humidity
141;BME280;65;48.778;9.160;2022-11-10T00:00:32;98938.31;;;10.81;100.00
141;BME280;65;48.778;9.160;2022-11-10T00:03:02;98930.41;;;10.81;100.00
141;BME280;65;48.778;9.160;2022-11-10T00:05:27;98931.09;;;10.85;100.00
141;BME280;65;48.778;9.160;2022-11-10T00:07:53;98927.59;;;10.84;100.00
141;BME280;65;48.778;9.160;2022-11-10T00:10:18;98933.81;;;10.83;100.00
141;BME280;65;48.778;9.160;2022-11-10T00:12:43;98933.03;;;10.81;100.00
141;BME280;65;48.778;9.160;2022-11-10T00:15:10;98939.03;;;10.85;100.00
141;BME280;65;48.778;9.160;2022-11-10T00:17:54;98947.47;;;10.91;100.00
141;BME280;65;48.778;9.160;2022-11-10T00:20:22;98953.00;;;10.87;100.00
141;BME280;65;48.778;9.160;2022-11-10T00:22:48;98947.97;;;10.82;100.00
141;BME280;65;48.778;9.160;2022-11-10T00:25:13;98955.97;;;10.81;100.00
141;BME280;65;48.778;9.160;2022-11-10T00:27:38;98950.78;;;10.79;100.00
141;BME280;65;48.778;9.160;2022-11-10T00:30:16;98947.28;;;10.78;100.00
141;BME280;65;48.778;9.160;2022-11-10T00:32:41;98948.22;;;10.77;100.00
141;BME280;65;48.778;9.160;2022-11-10T00:35:07;98954.44;;;10.76;100.00
141;BME280;65;48.778;9.160;2022-11-10T00:37:35;98955.44;;;10.74;100.00
141;BME280;65;48.778;9.160;2022-11-10T00:40:01;98963.22;;;10.77;100.00
141;BME280;65;48.778;9.160;2022-11-10T00:42:27;98962.38;;;10.76;100.00
141;BME280;65;48.778;9.160;2022-11-10T00:44:53;98961.59;;;10.74;100.00
141;BME280;65;48.778;9.160;2022-11-10T00:47:19;98960.66;;;10.75;100.00
141;BME280;65;48.778;9.160;2022-11-10T00:49:44;98966.78;;;10.76;100.00
141;BME280;65;48.778;9.160;2022-11-10T00:52:09;98966.94;;;10.73;100.00
141;BME280;65;48.778;9.160;2022-11-10T00:54:35;98965.25;;;10.72;100.00
141;BME280;65;48.778;9.160;2022-11-10T00:57:00;98975.03;;;10.70;100.00
141;BME280;65;48.778;9.160;2022-11-10T00:59:26;98976.91;;;10.68;100.00
141;BME280;65;48.778;9.160;2022-11-10T01:01:51;98992.84;;;10.66;100.00
141;BME280;65;48.778;9.160;2022-11-10T01:04:16;98989.28;;;10.67;100.00
141;BME280;65;48.778;9.160;2022-11-10T01:06:42;98988.56;;;10.64;100.00
141;BME280;65;48.778;9.160;2022-11-10T01:09:07;98987.88;;;10.60;100.00
141;BME280;65;48.778;9.160;2022-11-10T01:11:33;98989.97;;;10.54;100.00
141;BME280;65;48.778;9.160;2022-11-10T01:13:58;99004.44;;;10.47;100.00
141;BME280;65;48.778;9.160;2022-11-10T01:16:29;99002.09;;;10.40;100.00
141;BME280;65;48.778;9.160;2022-11-10T01:18:57;99003.44;;;10.30;100.00
141;BME280;65;48.778;9.160;2022-11-10T01:21:24;99005.69;;;10.21;100.00
141;BME280;65;48.778;9.160;2022-11-10T01:23:50;99007.81;;;10.12;100.00
141;BME280;65;48.778;9.160;2022-11-10T01:26:16;99019.69;;;10.04;100.00
141;BME280;65;48.778;9.160;2022-11-10T01:28:42;99022.53;;;9.99;100.00
141;BME280;65;48.778;9.160;2022-11-10T01:31:10;99028.88;;;9.95;100.00
141;BME280;65;48.778;9.160;2022-11-10T01:33:36;99025.53;;;9.92;100.00
141;BME280;65;48.778;9.160;2022-11-10T01:36:03;99029.03;;;9.92;100.00
141;BME280;65;48.778;9.160;2022-11-10T01:38:31;99027.41;;;9.90;100.00
141;BME280;65;48.778;9.160;2022-11-10T01:40:57;99028.41;;;9.87;100.00
141;BME280;65;48.778;9.160;2022-11-10T01:43:24;99029.09;;;9.91;100.00
141;BME280;65;48.778;9.160;2022-11-10T01:46:12;99029.25;;;9.88;100.00
141;BME280;65;48.778;9.160;2022-11-10T01:48:47;99036.78;;;9.76;100.00
141;BME280;65;48.778;9.160;2022-11-10T01:51:33;99036.66;;;9.61;100.00
141;BME280;65;48.778;9.160;2022-11-10T01:54:07;99033.72;;;9.48;100.00
141;BME280;65;48.778;9.160;2022-11-10T01:56:41;99045.47;;;9.41;100.00
141;BME280;65;48.778;9.160;2022-11-10T01:59:14;99040.59;;;9.32;100.00
141;BME280;65;48.778;9.160;2022-11-10T02:01:43;99042.38;;;9.31;100.00
141;BME280;65;48.778;9.160;2022-11-10T02:04:14;99032.56;;;9.35;100.00
141;BME280;65;48.778;9.160;2022-11-10T02:06:42;99030.19;;;9.29;100.00
141;BME280;65;48.778;9.160;2022-11-10T02:09:10;99028.47;;;9.28;100.00
141;BME280;65;48.778;9.160;2022-11-10T02:11:36;99041.78;;;9.25;100.00
141;BME280;65;48.778;9.160;2022-11-10T02:14:02;99047.00;;;9.26;100.00
141;BME280;65;48.778;9.160;2022-11-10T02:16:29;99045.28;;;9.25;100.00
141;BME280;65;48.778;9.160;2022-11-10T02:18:54;99045.53;;;9.19;100.00
141;BME280;65;48.778;9.160;2022-11-10T02:21:20;99054.63;;;9.12;100.00
141;BME280;65;48.778;9.160;2022-11-10T02:23:52;99055.63;;;9.09;100.00
141;BME280;65;48.778;9.160;2022-11-10T02:26:24;99059.97;;;9.10;100.00
141;BME280;65;48.778;9.160;2022-11-10T02:28:49;99057.59;;;9.04;100.00
141;BME280;65;48.778;9.160;2022-11-10T02:31:15;99071.59;;;9.06;100.00
141;BME280;65;48.778;9.160;2022-11-10T02:33:40;99072.69;;;9.01;100.00
141;BME280;65;48.778;9.160;2022-11-10T02:36:06;99080.03;;;8.94;100.00
141;BME280;65;48.778;9.160;2022-11-10T02:38:32;99081.00;;;8.92;100.00
141;BME280;65;48.778;9.160;2022-11-10T02:40:57;99088.06;;;8.91;100.00
141;BME280;65;48.778;9.160;2022-11-10T02:43:22;99088.19;;;8.88;100.00
141;BME280;65;48.778;9.160;2022-11-10T02:45:48;99086.34;;;8.90;100.00
141;BME280;65;48.778;9.160;2022-11-10T02:48:14;99085.41;;;8.91;100.00
141;BME280;65;48.778;9.160;2022-11-10T02:50:40;99093.59;;;8.85;100.00
141;BME280;65;48.778;9.160;2022-11-10T02:53:06;99102.59;;;8.79;100.00
141;BME280;65;48.778;9.160;2022-11-10T02:55:31;99097.66;;;8.72;100.00
141;BME280;65;48.778;9.160;2022-11-10T02:57:57;99097.88;;;8.66;100.00
141;BME280;65;48.778;9.160;2022-11-10T03:00:23;99118.16;;;8.64;100.00
141;BME280;65;48.778;9.160;2022-11-10T03:02:54;99121.03;;;8.57;100.00
141;BME280;65;48.778;9.160;2022-11-10T03:05:20;99117.75;;;8.52;100.00
141;BME280;65;48.778;9.160;2022-11-10T03:07:51;99127.41;;;8.52;100.00
141;BME280;65;48.778;9.160;2022-11-10T03:10:17;99130.19;;;8.49;100.00
141;BME280;65;48.778;9.160;2022-11-10T03:12:42;99131.03;;;8.49;100.00
141;BME280;65;48.778;9.160;2022-11-10T03:15:08;99138.81;;;8.52;100.00
141;BME280;65;48.778;9.160;2022-11-10T03:17:33;99140.16;;;8.63;100.00
141;BME280;65;48.778;9.160;2022-11-10T03:19:59;99143.25;;;8.74;100.00
141;BME280;65;48.778;9.160;2022-11-10T03:22:24;99137.41;;;8.87;100.00
141;BME280;65;48.778;9.160;2022-11-10T03:24:49;99137.75;;;9.00;100.00
141;BME280;65;48.778;9.160;2022-11-10T03:27:15;99139.88;;;9.12;100.00
141;BME280;65;48.778;9.160;2022-11-10T03:29:40;99146.88;;;9.13;100.00
141;BME280;65;48.778;9.160;2022-11-10T03:32:05;99154.91;;;9.10;100.00
141;BME280;65;48.778;9.160;2022-11-10T03:34:31;99154.84;;;9.12;100.00
141;BME280;65;48.778;9.160;2022-11-10T03:36:56;99161.72;;;9.16;100.00
141;BME280;65;48.778;9.160;2022-11-10T03:39:21;99164.66;;;9.08;100.00
141;BME280;65;48.778;9.160;2022-11-10T03:41:48;99169.53;;;8.97;100.00
141;BME280;65;48.778;9.160;2022-11-10T03:44:13;99164.56;;;8.90;100.00
141;BME280;65;48.778;9.160;2022-11-10T03:46:39;99170.88;;;8.85;100.00
141;BME280;65;48.778;9.160;2022-11-10T03:49:04;99172.91;;;8.79;100.00
141;BME280;65;48.778;9.160;2022-11-10T03:51:29;99174.03;;;8.73;100.00
141;BME280;65;48.778;9.160;2022-11-10T03:53:55;99178.56;;;8.70;100.00
141;BME280;65;48.778;9.160;2022-11-10T03:56:20;99173.34;;;8.68;100.00
141;BME280;65;48.778;9.160;2022-11-10T03:58:45;99181.94;;;8.73;100.00
141;BME280;65;48.778;9.160;2022-11-10T04:01:11;99180.75;;;8.80;100.00
141;BME280;65;48.778;9.160;2022-11-10T04:03:36;99188.59;;;8.82;100.00
141;BME280;65;48.778;9.160;2022-11-10T04:06:02;99195.53;;;8.84;100.00
141;BME280;65;48.778;9.160;2022-11-10T04:08:45;99198.16;;;8.84;100.00
141;BME280;65;48.778;9.160;2022-11-10T04:11:23;99194.81;;;8.81;100.00
141;BME280;65;48.778;9.160;2022-11-10T04:14:08;99197.56;;;8.78;100.00
141;BME280;65;48.778;9.160;2022-11-10T04:16:52;99209.06;;;8.75;100.00
141;BME280;65;48.778;9.160;2022-11-10T04:19:17;99221.09;;;8.82;100.00
141;BME280;65;48.778;9.160;2022-11-10T04:21:43;99221.59;;;8.92;100.00
141;BME280;65;48.778;9.160;2022-11-10T04:24:08;99223.25;;;8.95;100.00
141;BME280;65;48.778;9.160;2022-11-10T04:26:34;99222.19;;;8.99;100.00
141;BME280;65;48.778;9.160;2022-11-10T04:29:04;99226.38;;;9.04;100.00
141;BME280;65;48.778;9.160;2022-11-10T04:31:32;99224.66;;;9.03;100.00
141;BME280;65;48.778;9.160;2022-11-10T04:33:58;99234.16;;;9.07;100.00
141;BME280;65;48.778;9.160;2022-11-10T04:36:26;99237.03;;;9.01;100.00
141;BME280;65;48.778;9.160;2022-11-10T04:38:53;99236.72;;;8.87;100.00
141;BME280;65;48.778;9.160;2022-11-10T04:41:20;99234.47;;;8.78;100.00
141;BME280;65;48.778;9.160;2022-11-10T04:43:45;99234.03;;;8.65;100.00
141;BME280;65;48.778;9.160;2022-11-10T04:46:23;99232.06;;;8.48;100.00
141;BME280;65;48.778;9.160;2022-11-10T04:48:50;99250.50;;;8.48;100.00
141;BME280;65;48.778;9.160;2022-11-10T04:51:16;99252.63;;;8.39;100.00
141;BME280;65;48.778;9.160;2022-11-10T04:53:42;99251.03;;;8.35;100.00
141;BME280;65;48.778;9.160;2022-11-10T04:56:13;99261.50;;;8.36;100.00
141;BME280;65;48.778;9.160;2022-11-10T04:58:39;99262.34;;;8.37;100.00
141;BME280;65;48.778;9.160;2022-11-10T05:01:04;99259.72;;;8.37;100.00
141;BME280;65;48.778;9.160;2022-11-10T05:03:30;99256.44;;;8.30;100.00
141;BME280;65;48.778;9.160;2022-11-10T05:05:55;99255.78;;;8.23;100.00
141;BME280;65;48.778;9.160;2022-11-10T05:08:21;99265.19;;;8.06;100.00
141;BME280;65;48.778;9.160;2022-11-10T05:10:47;99272.72;;;7.91;100.00
141;BME280;65;48.778;9.160;2022-11-10T05:13:12;99278.38;;;7.81;100.00
141;BME280;65;48.778;9.160;2022-11-10T05:15:37;99281.16;;;7.76;100.00
141;BME280;65;48.778;9.160;2022-11-10T05:18:06;99284.75;;;7.74;100.00
141;BME280;65;48.778;9.160;2022-11-10T05:20:31;99281.38;;;7.70;100.00
141;BME280;65;48.778;9.160;2022-11-10T05:22:57;99290.00;;;7.74;100.00
141;BME280;65;48.778;9.160;2022-11-10T05:25:41;99291.19;;;7.90;100.00
141;BME280;65;48.778;9.160;2022-11-10T05:28:09;99287.06;;;8.08;100.00
141;BME280;65;48.778;9.160;2022-11-10T05:30:35;99296.44;;;8.16;100.00
141;BME280;65;48.778;9.160;2022-11-10T05:33:01;99302.13;;;8.29;100.00
141;BME280;65;48.778;9.160;2022-11-10T05:35:27;99299.06;;;8.41;100.00
141;BME280;65;48.778;9.160;2022-11-10T05:37:52;99296.22;;;8.47;100.00
141;BME280;65;48.778;9.160;2022-11-10T05:40:17;99300.38;;;8.53;100.00
141;BME280;65;48.778;9.160;2022-11-10T05:42:47;99302.09;;;8.54;100.00
141;BME280;65;48.778;9.160;2022-11-10T05:45:14;99307.31;;;8.55;100.00
141;BME280;65;48.778;9.160;2022-11-10T05:47:40;99297.06;;;8.48;100.00
141;BME280;65;48.778;9.160;2022-11-10T05:50:07;99302.44;;;8.45;100.00
141;BME280;65;48.778;9.160;2022-11-10T05:52:33;99303.53;;;8.39;100.00
141;BME280;65;48.778;9.160;2022-11-10T05:54:59;99312.53;;;8.32;100.00
141;BME280;65;48.778;9.160;2022-11-10T05:57:24;99309.97;;;8.31;100.00
141;BME280;65;48.778;9.160;2022-11-10T05:59:49;99303.94;;;8.27;100.00
141;BME280;65;48.778;9.160;2022-11-10T06:02:15;99301.53;;;8.21;100.00
141;BME280;65;48.778;9.160;2022-11-10T06:04:41;99316.94;;;8.07;100.00
141;BME280;65;48.778;9.160;2022-11-10T06:07:06;99327.63;;;8.02;100.00
141;BME280;65;48.778;9.160;2022-11-10T06:09:36;99331.28;;;7.98;100.00
141;BME280;65;48.778;9.160;2022-11-10T06:12:02;99330.56;;;7.93;100.00
141;BME280;65;48.778;9.160;2022-11-10T06:14:28;99338.19;;;7.76;100.00
141;BME280;65;48.778;9.160;2022-11-10T06:16:53;99355.25;;;7.64;100.00
141;BME280;65;48.778;9.160;2022-11-10T06:19:18;99358.03;;;7.59;100.00
141;BME280;65;48.778;9.160;2022-11-10T06:21:44;99365.22;;;7.81;100.00
141;BME280;65;48.778;9.160;2022-11-10T06:24:09;99374.13;;;7.77;100.00
141;BME280;65;48.778;9.160;2022-11-10T06:26:35;99370.94;;;7.67;100.00
141;BME280;65;48.778;9.160;2022-11-10T06:29:00;99373.03;;;7.56;100.00
141;BME280;65;48.778;9.160;2022-11-10T06:31:26;99370.97;;;7.66;100.00
141;BME280;65;48.778;9.160;2022-11-10T06:33:52;99384.09;;;7.67;100.00
141;BME280;65;48.778;9.160;2022-11-10T06:36:17;99387.56;;;7.68;100.00
141;BME280;65;48.778;9.160;2022-11-10T06:38:43;99402.50;;;7.67;100.00
141;BME280;65;48.778;9.160;2022-11-10T06:41:08;99406.94;;;7.65;100.00
141;BME280;65;48.778;9.160;2022-11-10T06:43:33;99406.94;;;7.65;100.00
141;BME280;65;48.778;9.160;2022-11-10T06:45:59;99411.09;;;7.72;100.00
141;BME280;65;48.778;9.160;2022-11-10T06:48:24;99427.75;;;7.73;100.00
141;BME280;65;48.778;9.160;2022-11-10T06:50:50;99440.66;;;7.80;100.00
141;BME280;65;48.778;9.160;2022-11-10T06:53:15;99438.44;;;7.94;100.00
141;BME280;65;48.778;9.160;2022-11-10T06:55:41;99444.00;;;8.13;100.00
141;BME280;65;48.778;9.160;2022-11-10T06:58:07;99453.00;;;8.33;100.00
141;BME280;65;48.778;9.160;2022-11-10T07:00:33;99456.81;;;8.50;100.00
141;BME280;65;48.778;9.160;2022-11-10T07:03:03;99463.31;;;8.65;100.00
141;BME280;65;48.778;9.160;2022-11-10T07:05:29;99465.72;;;8.73;100.00
141;BME280;65;48.778;9.160;2022-11-10T07:08:01;99466.25;;;8.82;100.00
141;BME280;65;48.778;9.160;2022-11-10T07:10:26;99472.94;;;8.91;100.00
141;BME280;65;48.778;9.160;2022-11-10T07:12:56;99467.25;;;9.03;100.00
141;BME280;65;48.778;9.160;2022-11-10T07:15:22;99473.16;;;9.10;100.00
141;BME280;65;48.778;9.160;2022-11-10T07:17:47;99485.31;;;9.14;100.00
141;BME280;65;48.778;9.160;2022-11-10T07:20:12;99492.88;;;9.23;100.00
141;BME280;65;48.778;9.160;2022-11-10T07:22:38;99502.38;;;9.29;100.00
141;BME280;65;48.778;9.160;2022-11-10T07:25:03;99508.16;;;9.38;100.00
141;BME280;65;48.778;9.160;2022-11-10T07:27:29;99499.09;;;9.45;100.00
141;BME280;65;48.778;9.160;2022-11-10T07:29:54;99508.63;;;9.49;100.00
141;BME280;65;48.778;9.160;2022-11-10T07:32:19;99516.25;;;9.57;100.00
141;BME280;65;48.778;9.160;2022-11-10T07:34:45;99509.13;;;9.59;100.00
141;BME280;65;48.778;9.160;2022-11-10T07:37:10;99519.28;;;9.46;100.00
141;BME280;65;48.778;9.160;2022-11-10T07:39:35;99518.88;;;9.34;100.00
141;BME280;65;48.778;9.160;2022-11-10T07:42:01;99514.66;;;9.30;100.00
141;BME280;65;48.778;9.160;2022-11-10T07:44:26;99519.25;;;9.23;100.00
141;BME280;65;48.778;9.160;2022-11-10T07:46:52;99527.16;;;9.23;100.00
141;BME280;65;48.778;9.160;2022-11-10T07:49:17;99522.75;;;9.24;100.00
141;BME280;65;48.778;9.160;2022-11-10T07:51:42;99529.75;;;9.25;100.00
141;BME280;65;48.778;9.160;2022-11-10T07:54:08;99533.69;;;9.38;100.00
141;BME280;65;48.778;9.160;2022-11-10T07:56:33;99529.91;;;9.45;100.00
141;BME280;65;48.778;9.160;2022-11-10T07:58:59;99531.56;;;9.47;100.00
141;BME280;65;48.778;9.160;2022-11-10T08:01:24;99535.00;;;9.49;100.00
141;BME280;65;48.778;9.160;2022-11-10T08:03:49;99541.38;;;9.44;100.00
141;BME280;65;48.778;9.160;2022-11-10T08:06:15;99551.28;;;9.37;100.00
141;BME280;65;48.778;9.160;2022-11-10T08:08:40;99543.56;;;9.33;100.00
141;BME280;65;48.778;9.160;2022-11-10T08:11:06;99552.31;;;9.33;100.00
141;BME280;65;48.778;9.160;2022-11-10T08:13:31;99552.38;;;9.32;100.00
141;BME280;65;48.778;9.160;2022-11-10T08:15:57;99559.25;;;9.36;100.00
141;BME280;65;48.778;9.160;2022-11-10T08:18:23;99555.59;;;9.40;100.00
141;BME280;65;48.778;9.160;2022-11-10T08:20:49;99558.59;;;9.54;100.00
141;BME280;65;48.778;9.160;2022-11-10T08:23:15;99563.16;;;9.72;100.00
141;BME280;65;48.778;9.160;2022-11-10T08:25:42;99563.75;;;9.80;100.00
141;BME280;65;48.778;9.160;2022-11-10T08:28:09;99572.22;;;10.12;100.00
141;BME280;65;48.778;9.160;2022-11-10T08:30:36;99567.88;;;10.11;100.00
141;BME280;65;48.778;9.160;2022-11-10T08:33:04;99568.91;;;10.07;100.00
141;BME280;65;48.778;9.160;2022-11-10T08:35:32;99567.38;;;10.01;100.00
141;BME280;65;48.778;9.160;2022-11-10T08:38:04;99567.13;;;10.07;100.00
141;BME280;65;48.778;9.160;2022-11-10T08:40:31;99571.78;;;10.24;100.00
141;BME280;65;48.778;9.160;2022-11-10T08:43:01;99582.66;;;10.38;100.00
141;BME280;65;48.778;9.160;2022-11-10T08:45:27;99577.94;;;10.47;100.00
141;BME280;65;48.778;9.160;2022-11-10T08:48:05;99585.97;;;10.65;100.00
141;BME280;65;48.778;9.160;2022-11-10T08:50:31;99582.16;;;10.72;100.00
141;BME280;65;48.778;9.160;2022-11-10T08:53:02;99585.28;;;10.82;100.00
141;BME280;65;48.778;9.160;2022-11-10T08:55:28;99584.41;;;11.03;100.00
141;BME280;65;48.778;9.160;2022-11-10T08:58:00;99588.44;;;11.12;100.00
141;BME280;65;48.778;9.160;2022-11-10T09:00:27;99588.75;;;11.25;100.00
141;BME280;65;48.778;9.160;2022-11-10T09:02:56;99589.63;;;11.25;100.00
141;BME280;65;48.778;9.160;2022-11-10T09:05:26;99596.81;;;11.22;100.00
141;BME280;65;48.778;9.160;2022-11-10T09:07:52;99599.06;;;11.31;100.00
141;BME280;65;48.778;9.160;2022-11-10T09:10:17;99598.81;;;11.37;99.81
141;BME280;65;48.778;9.160;2022-11-10T09:12:43;99605.63;;;11.43;96.53
141;BME280;65;48.778;9.160;2022-11-10T09:15:09;99611.69;;;11.45;98.32
141;BME280;65;48.778;9.160;2022-11-10T09:17:36;99615.22;;;11.45;96.07
141;BME280;65;48.778;9.160;2022-11-10T09:20:03;99605.28;;;11.70;92.95
141;BME280;65;48.778;9.160;2022-11-10T09:22:28;99608.63;;;11.74;92.86
141;BME280;65;48.778;9.160;2022-11-10T09:24:54;99610.63;;;11.69;92.97
141;BME280;65;48.778;9.160;2022-11-10T09:27:19;99616.41;;;11.79;90.84
141;BME280;65;48.778;9.160;2022-11-10T09:29:45;99615.84;;;11.91;89.63
141;BME280;65;48.778;9.160;2022-11-10T09:32:10;99616.84;;;11.88;88.71
141;BME280;65;48.778;9.160;2022-11-10T09:34:36;99620.56;;;11.84;90.10
141;BME280;65;48.778;9.160;2022-11-10T09:37:01;99633.19;;;11.98;88.94
141;BME280;65;48.778;9.160;2022-11-10T09:39:27;99631.31;;;12.00;87.58
141;BME280;65;48.778;9.160;2022-11-10T09:41:53;99640.56;;;12.10;84.92
141;BME280;65;48.778;9.160;2022-11-10T09:44:38;99642.75;;;12.21;84.92
141;BME280;65;48.778;9.160;2022-11-10T09:47:13;99650.16;;;12.13;87.37
141;BME280;65;48.778;9.160;2022-11-10T09:50:45;99653.00;;;12.28;83.07
141;BME280;65;48.778;9.160;2022-11-10T09:52:38;99649.19;;;12.34;82.18
141;BME280;65;48.778;9.160;2022-11-10T09:55:25;99656.44;;;12.30;85.66
141;BME280;65;48.778;9.160;2022-11-10T09:57:55;99660.94;;;12.28;81.27
141;BME280;65;48.778;9.160;2022-11-10T10:00:22;99666.03;;;12.33;81.97
141;BME280;65;48.778;9.160;2022-11-10T10:02:53;99675.63;;;12.35;85.26
141;BME280;65;48.778;9.160;2022-11-10T10:08:08;99662.66;;;12.29;83.10
141;BME280;65;48.778;9.160;2022-11-10T10:16:43;99666.94;;;12.70;79.31
141;BME280;65;48.778;9.160;2022-11-10T10:22:43;99663.34;;;12.71;80.77
141;BME280;65;48.778;9.160;2022-11-10T10:24:42;99658.84;;;12.73;79.76
141;BME280;65;48.778;9.160;2022-11-10T10:27:17;99669.38;;;12.74;83.22
141;BME280;65;48.778;9.160;2022-11-10T10:29:46;99658.34;;;12.64;82.81
141;BME280;65;48.778;9.160;2022-11-10T10:32:14;99655.53;;;12.67;80.42
141;BME280;65;48.778;9.160;2022-11-10T10:34:41;99658.84;;;12.73;80.94
141;BME280;65;48.778;9.160;2022-11-10T10:37:22;99661.84;;;12.84;78.93
141;BME280;65;48.778;9.160;2022-11-10T10:39:51;99664.97;;;12.92;77.28
141;BME280;65;48.778;9.160;2022-11-10T10:42:29;99670.13;;;12.95;79.37
141;BME280;65;48.778;9.160;2022-11-10T10:47:49;99669.72;;;12.85;77.00
141;BME280;65;48.778;9.160;2022-11-10T10:52:44;99670.00;;;13.15;75.66
141;BME280;65;48.778;9.160;2022-11-10T10:55:11;99669.38;;;13.10;74.90
141;BME280;65;48.778;9.160;2022-11-10T10:57:49;99666.41;;;13.16;73.34
141;BME280;65;48.778;9.160;2022-11-10T11:00:22;99658.31;;;13.19;73.54
141;BME280;65;48.778;9.160;2022-11-10T11:03:06;99652.44;;;13.13;74.61
141;BME280;65;48.778;9.160;2022-11-10T11:05:32;99655.66;;;13.19;75.31
141;BME280;65;48.778;9.160;2022-11-10T11:07:59;99655.94;;;13.32;72.87
141;BME280;65;48.778;9.160;2022-11-10T11:10:31;99654.56;;;13.23;72.45
141;BME280;65;48.778;9.160;2022-11-10T11:13:30;99660.69;;;13.43;69.72
141;BME280;65;48.778;9.160;2022-11-10T11:18:22;99661.44;;;13.27;71.90
141;BME280;65;48.778;9.160;2022-11-10T11:32:19;99657.31;;;13.56;69.30
141;BME280;65;48.778;9.160;2022-11-10T11:35:09;99660.69;;;13.60;69.31
141;BME280;65;48.778;9.160;2022-11-10T11:40:34;99663.06;;;13.99;67.35
141;BME280;65;48.778;9.160;2022-11-10T11:45:49;99656.78;;;14.00;67.55
141;BME280;65;48.778;9.160;2022-11-10T11:51:11;99654.66;;;14.07;68.72
141;BME280;65;48.778;9.160;2022-11-10T11:56:40;99664.03;;;14.47;64.05
141;BME280;65;48.778;9.160;2022-11-10T11:59:15;99664.03;;;14.30;65.86
141;BME280;65;48.778;9.160;2022-11-10T12:05:00;99654.31;;;14.13;69.68
141;BME280;65;48.778;9.160;2022-11-10T12:07:41;99655.38;;;14.26;69.10
141;BME280;65;48.778;9.160;2022-11-10T12:18:45;99639.72;;;14.04;65.28
141;BME280;65;48.778;9.160;2022-11-10T12:21:23;99642.13;;;13.93;62.83
141;BME280;65;48.778;9.160;2022-11-10T12:29:05;99651.38;;;13.69;67.23
141;BME280;65;48.778;9.160;2022-11-10T12:31:37;99646.66;;;13.91;64.88
141;BME280;65;48.778;9.160;2022-11-10T12:36:51;99643.94;;;14.08;64.17
141;BME280;65;48.778;9.160;2022-11-10T12:42:19;99641.78;;;13.99;65.05
141;BME280;65;48.778;9.160;2022-11-10T12:45:01;99638.34;;;13.97;65.58
141;BME280;65;48.778;9.160;2022-11-10T12:47:32;99633.56;;;14.04;63.55
141;BME280;65;48.778;9.160;2022-11-10T12:52:38;99631.78;;;14.20;62.34
141;BME280;65;48.778;9.160;2022-11-10T12:55:04;99623.88;;;14.34;62.59
141;BME280;65;48.778;9.160;2022-11-10T12:57:30;99634.88;;;14.28;61.18
141;BME280;65;48.778;9.160;2022-11-10T13:00:16;99636.84;;;14.24;62.56
141;BME280;65;48.778;9.160;2022-11-10T13:02:47;99640.53;;;14.38;64.59
141;BME280;65;48.778;9.160;2022-11-10T13:07:40;99632.28;;;14.27;66.56
141;BME280;65;48.778;9.160;2022-11-10T13:10:23;99644.03;;;14.22;68.41
141;BME280;65;48.778;9.160;2022-11-10T13:13:09;99650.88;;;14.44;64.81
141;BME280;65;48.778;9.160;2022-11-10T13:18:03;99664.63;;;14.19;69.04
141;BME280;65;48.778;9.160;2022-11-10T13:23:26;99657.28;;;14.40;62.77
141;BME280;65;48.778;9.160;2022-11-10T13:34:25;99666.81;;;14.44;61.12
141;BME280;65;48.778;9.160;2022-11-10T13:36:51;99658.72;;;14.30;62.71
141;BME280;65;48.778;9.160;2022-11-10T13:41:52;99654.94;;;14.18;64.19
141;BME280;65;48.778;9.160;2022-11-10T13:44:36;99660.59;;;14.12;64.91
141;BME280;65;48.778;9.160;2022-11-10T13:47:19;99661.00;;;14.04;65.07
141;BME280;65;48.778;9.160;2022-11-10T13:50:07;99665.47;;;14.04;64.73
141;BME280;65;48.778;9.160;2022-11-10T14:00:32;99674.38;;;14.03;67.92
141;BME280;65;48.778;9.160;2022-11-10T14:02:59;99678.56;;;13.91;69.27
141;BME280;65;48.778;9.160;2022-11-10T14:08:16;99677.97;;;13.84;67.86
141;BME280;65;48.778;9.160;2022-11-10T14:10:55;99680.44;;;13.89;66.83
141;BME280;65;48.778;9.160;2022-11-10T14:13:44;99678.06;;;14.00;67.38
141;BME280;65;48.778;9.160;2022-11-10T14:16:24;99691.25;;;14.02;69.22
141;BME280;65;48.778;9.160;2022-11-10T14:19:06;99695.88;;;13.98;68.98
141;BME280;65;48.778;9.160;2022-11-10T14:21:56;99694.09;;;13.99;72.00
141;BME280;65;48.778;9.160;2022-11-10T14:27:03;99692.28;;;13.99;67.83
141;BME280;65;48.778;9.160;2022-11-10T14:32:01;99695.72;;;14.01;68.29
141;BME280;65;48.778;9.160;2022-11-10T14:34:27;99700.19;;;14.01;71.27
141;BME280;65;48.778;9.160;2022-11-10T14:36:55;99696.22;;;13.92;71.04
141;BME280;65;48.778;9.160;2022-11-10T14:39:27;99691.44;;;13.81;73.47
141;BME280;65;48.778;9.160;2022-11-10T14:41:54;99698.38;;;13.84;70.80
141;BME280;65;48.778;9.160;2022-11-10T14:44:24;99694.47;;;14.08;71.33
141;BME280;65;48.778;9.160;2022-11-10T14:46:50;99699.28;;;14.98;70.23
141;BME280;65;48.778;9.160;2022-11-10T14:49:21;99700.81;;;16.79;59.14
141;BME280;65;48.778;9.160;2022-11-10T14:51:47;99704.31;;;17.99;55.39
141;BME280;65;48.778;9.160;2022-11-10T14:54:17;99709.97;;;18.46;53.06
141;BME280;65;48.778;9.160;2022-11-10T14:56:47;99717.69;;;17.99;52.87
141;BME280;65;48.778;9.160;2022-11-10T14:59:14;99728.41;;;18.12;56.12
141;BME280;65;48.778;9.160;2022-11-10T15:01:47;99721.06;;;17.76;53.69
141;BME280;65;48.778;9.160;2022-11-10T15:04:14;99724.03;;;17.05;55.23
141;BME280;65;48.778;9.160;2022-11-10T15:06:40;99730.06;;;16.09;57.65
141;BME280;65;48.778;9.160;2022-11-10T15:09:15;99730.19;;;15.00;61.68
141;BME280;65;48.778;9.160;2022-11-10T15:11:48;99730.78;;;14.25;64.92
141;BME280;65;48.778;9.160;2022-11-10T15:17:08;99731.06;;;13.34;70.09
141;BME280;65;48.778;9.160;2022-11-10T15:19:36;99732.25;;;12.91;74.13
141;BME280;65;48.778;9.160;2022-11-10T15:24:41;99733.69;;;12.42;79.28
141;BME280;65;48.778;9.160;2022-11-10T15:27:24;99737.88;;;12.27;80.63
141;BME280;65;48.778;9.160;2022-11-10T15:29:51;99747.28;;;12.34;81.58
141;BME280;65;48.778;9.160;2022-11-10T15:32:21;99754.25;;;12.37;82.32
141;BME280;65;48.778;9.160;2022-11-10T15:34:49;99755.38;;;12.31;82.89
141;BME280;65;48.778;9.160;2022-11-10T15:37:26;99760.03;;;12.26;84.19
141;BME280;65;48.778;9.160;2022-11-10T15:41:13;99757.44;;;12.04;85.19
141;BME280;65;48.778;9.160;2022-11-10T15:43:23;99759.84;;;11.90;86.03
141;BME280;65;48.778;9.160;2022-11-10T15:45:59;99763.88;;;11.78;86.40
141;BME280;65;48.778;9.160;2022-11-10T15:48:30;99765.38;;;11.63;88.29
141;BME280;65;48.778;9.160;2022-11-10T15:51:01;99767.84;;;11.46;89.45